Time;durP1;ratioP1;P1;durP2;ratioP2;P2;SDS_P1;SDS_P2;PMS_P1;PMS_P2;Temp;Humidity;BMP_temperature;BMP_pressure;BME280_temperature;BME280_humidity;BME280_pressure;Samples;Min_cycle;Max_cycle;Signal;HPM_P1;HPM_P2
2021/11/25 00:00:32;;;;;;;55.75;27.75;;;6.70;80.70;;;;;;5088238;28;20024;-69
2021/11/25 00:02:58;;;;;;;53.50;26.63;;;6.70;80.70;;;;;;5094127;28;20017;-73
2021/11/25 00:05:24;;;;;;;46.88;25.23;;;6.60;80.60;;;;;;5088711;28;20054;-73
2021/11/25 00:07:49;;;;;;;53.45;27.33;;;6.60;80.40;;;;;;5094643;28;20377;-73
2021/11/25 00:10:15;;;;;;;52.40;25.90;;;6.60;80.20;;;;;;5098981;28;20047;-73
2021/11/25 00:12:42;;;;;;;47.35;26.08;;;6.50;80.10;;;;;;5097698;28;20135;-73
2021/11/25 00:15:11;;;;;;;53.72;26.63;;;6.50;80.10;;;;;;5109092;28;20459;-73
2021/11/25 00:17:38;;;;;;;49.03;26.45;;;6.50;80.00;;;;;;5107360;28;20039;-73
2021/11/25 00:20:07;;;;;;;50.72;27.17;;;6.40;80.00;;;;;;5088683;28;20156;-72
2021/11/25 00:22:33;;;;;;;53.63;26.98;;;6.40;80.10;;;;;;5091665;28;20024;-73
2021/11/25 00:24:59;;;;;;;46.50;25.17;;;6.40;80.20;;;;;;5086694;28;20500;-72
2021/11/25 00:27:25;;;;;;;49.92;26.33;;;6.30;80.20;;;;;;5091953;28;20439;-73
2021/11/25 00:29:51;;;;;;;48.10;26.75;;;6.30;80.20;;;;;;5089752;28;20118;-73
2021/11/25 00:32:17;;;;;;;52.33;25.88;;;6.30;80.30;;;;;;5099135;28;20054;-73
2021/11/25 00:34:43;;;;;;;50.65;25.73;;;6.30;80.30;;;;;;5074735;28;20040;-73
2021/11/25 00:37:09;;;;;;;51.28;26.92;;;6.30;81.00;;;;;;5092474;28;20032;-73
2021/11/25 00:39:34;;;;;;;48.50;24.88;;;6.30;80.40;;;;;;5091022;28;20026;-72
2021/11/25 00:42:00;;;;;;;51.58;26.10;;;6.30;80.50;;;;;;5097172;28;20039;-69
2021/11/25 00:44:26;;;;;;;46.47;24.60;;;6.30;80.70;;;;;;5074552;28;20028;-69
2021/11/25 00:46:52;;;;;;;51.83;25.80;;;6.30;80.50;;;;;;5074636;28;20093;-69
2021/11/25 00:49:18;;;;;;;53.83;26.48;;;6.30;80.60;;;;;;5087701;28;20557;-70
2021/11/25 00:51:43;;;;;;;49.97;24.40;;;6.20;80.60;;;;;;5103267;28;20044;-70
2021/11/25 00:54:09;;;;;;;50.47;26.30;;;6.20;80.50;;;;;;5100685;28;20363;-70
2021/11/25 00:56:35;;;;;;;50.80;25.02;;;6.20;80.50;;;;;;5073516;28;20043;-70
2021/11/25 00:59:00;;;;;;;52.22;27.65;;;6.20;80.60;;;;;;5092583;28;20067;-70
2021/11/25 01:01:26;;;;;;;55.55;25.40;;;6.20;80.60;;;;;;5074631;28;20081;-70
2021/11/25 01:03:52;;;;;;;47.58;24.02;;;6.20;80.60;;;;;;5098430;28;20506;-70
2021/11/25 01:06:18;;;;;;;50.42;25.35;;;6.20;80.60;;;;;;5092340;28;20063;-71
2021/11/25 01:08:43;;;;;;;47.25;24.23;;;6.10;80.50;;;;;;5098283;28;20031;-70
2021/11/25 01:11:09;;;;;;;42.53;23.42;;;6.10;80.50;;;;;;5099765;28;20085;-70
2021/11/25 01:13:35;;;;;;;47.78;23.55;;;6.10;80.50;;;;;;5072929;28;20031;-70
2021/11/25 01:16:01;;;;;;;49.17;26.23;;;6.10;80.50;;;;;;5096083;28;20114;-70
2021/11/25 01:18:27;;;;;;;46.08;24.70;;;6.00;80.40;;;;;;5101205;28;20031;-69
2021/11/25 01:20:53;;;;;;;45.50;24.48;;;6.00;80.50;;;;;;5091580;28;20031;-69
2021/11/25 01:23:26;;;;;;;47.53;25.33;;;6.00;80.60;;;;;;5091528;28;20032;-70
2021/11/25 01:25:54;;;;;;;45.58;25.15;;;6.00;80.60;;;;;;5105576;28;20050;-69
2021/11/25 01:28:21;;;;;;;43.45;24.05;;;6.00;80.50;;;;;;5100865;28;20024;-69
2021/11/25 01:30:51;;;;;;;47.92;23.67;;;5.90;80.40;;;;;;5092598;28;20039;-70
2021/11/25 01:33:18;;;;;;;46.67;23.58;;;5.90;80.50;;;;;;5107973;28;20068;-70
2021/11/25 01:35:45;;;;;;;41.08;23.08;;;5.90;80.40;;;;;;5090651;28;20086;-73
2021/11/25 01:38:11;;;;;;;46.40;24.15;;;5.90;80.40;;;;;;5095118;28;20024;-73
2021/11/25 01:40:38;;;;;;;46.67;23.98;;;5.90;80.40;;;;;;5094863;28;20032;-73
2021/11/25 01:43:05;;;;;;;46.67;26.00;;;5.90;80.50;;;;;;5090919;28;20032;-73
2021/11/25 01:45:30;;;;;;;40.58;23.13;;;5.90;80.70;;;;;;5091305;28;20107;-73
2021/11/25 01:47:57;;;;;;;45.35;23.70;;;5.90;80.80;;;;;;5073477;28;20138;-70
2021/11/25 01:50:25;;;;;;;51.13;26.35;;;5.90;80.90;;;;;;5076422;28;20101;-69
2021/11/25 01:52:52;;;;;;;44.63;24.52;;;5.90;81.00;;;;;;5068534;28;20635;-73
2021/11/25 01:55:19;;;;;;;48.03;25.80;;;5.90;81.20;;;;;;5064829;28;20120;-73
2021/11/25 01:57:47;;;;;;;46.38;24.45;;;6.00;81.40;;;;;;5069931;28;20043;-73
2021/11/25 02:00:21;;;;;;;43.85;24.10;;;5.90;81.50;;;;;;5067938;28;20029;-73
2021/11/25 02:02:47;;;;;;;49.13;25.67;;;6.00;81.80;;;;;;5062596;28;20037;-69
2021/11/25 02:05:13;;;;;;;42.55;22.88;;;6.00;81.90;;;;;;5066368;28;20020;-70
2021/11/25 02:07:39;;;;;;;49.25;25.10;;;6.00;81.90;;;;;;5053008;28;20391;-70
2021/11/25 02:10:06;;;;;;;46.28;25.25;;;6.00;82.00;;;;;;5067178;28;20036;-73
2021/11/25 02:12:32;;;;;;;43.45;23.20;;;6.00;82.10;;;;;;5067770;28;20027;-70
2021/11/25 02:14:58;;;;;;;43.83;23.95;;;6.00;82.10;;;;;;5066748;28;20395;-73
2021/11/25 02:17:24;;;;;;;49.65;25.55;;;6.00;82.30;;;;;;5052754;28;20033;-73
2021/11/25 02:19:50;;;;;;;44.13;23.75;;;6.00;82.30;;;;;;5065357;28;20480;-73
2021/11/25 02:22:19;;;;;;;43.95;24.17;;;6.00;82.50;;;;;;5069002;28;20468;-73
2021/11/25 02:24:45;;;;;;;47.80;24.10;;;6.10;82.60;;;;;;5066975;28;20020;-73
2021/11/25 02:27:10;;;;;;;46.28;23.83;;;6.10;82.70;;;;;;5062805;28;20024;-73
2021/11/25 02:29:40;;;;;;;45.88;24.67;;;6.10;82.70;;;;;;5067397;28;20118;-73
2021/11/25 02:32:06;;;;;;;49.22;23.75;;;6.10;82.80;;;;;;5069014;28;20438;-73
2021/11/25 02:34:32;;;;;;;47.65;25.33;;;6.10;82.80;;;;;;5070032;28;20116;-73
2021/11/25 02:36:57;;;;;;;44.40;24.42;;;6.10;82.80;;;;;;5065321;28;20515;-73
2021/11/25 02:39:23;;;;;;;50.08;25.15;;;6.10;82.80;;;;;;5066691;28;20029;-74
2021/11/25 02:41:49;;;;;;;48.97;24.90;;;6.10;82.80;;;;;;5058795;28;20059;-73
2021/11/25 02:44:14;;;;;;;48.08;24.73;;;6.10;82.90;;;;;;5069658;28;20032;-73
2021/11/25 02:46:40;;;;;;;43.10;23.52;;;6.10;82.90;;;;;;5062625;28;20036;-73
2021/11/25 02:49:06;;;;;;;44.95;24.20;;;6.10;83.00;;;;;;5069701;28;20037;-73
2021/11/25 02:51:32;;;;;;;44.22;24.27;;;6.10;83.10;;;;;;5083769;28;20105;-70
2021/11/25 02:53:59;;;;;;;42.72;24.77;;;6.10;83.20;;;;;;5088900;28;20086;-70
2021/11/25 02:56:27;;;;;;;44.65;24.20;;;6.10;83.20;;;;;;5098049;28;20012;-73
2021/11/25 02:58:55;;;;;;;47.75;23.58;;;6.10;83.30;;;;;;5097379;28;20411;-73
2021/11/25 03:01:39;;;;;;;42.08;24.73;;;6.10;83.40;;;;;;5100271;28;20088;-73
2021/11/25 03:04:06;;;;;;;44.85;24.42;;;6.10;83.40;;;;;;5099332;28;20042;-73
2021/11/25 03:06:33;;;;;;;45.03;24.13;;;6.10;83.40;;;;;;5090014;28;20024;-73
2021/11/25 03:08:59;;;;;;;42.13;23.05;;;6.10;83.40;;;;;;5071099;28;20433;-73
2021/11/25 03:11:27;;;;;;;44.63;24.40;;;6.10;83.50;;;;;;5088527;28;20405;-69
2021/11/25 03:13:57;;;;;;;49.20;24.95;;;6.10;83.50;;;;;;5093796;28;20474;-69
2021/11/25 03:16:23;;;;;;;42.58;24.05;;;6.10;83.50;;;;;;5088114;28;20051;-69
2021/11/25 03:18:50;;;;;;;42.88;23.63;;;6.10;83.60;;;;;;5097569;28;20032;-70
2021/11/25 03:21:18;;;;;;;44.10;23.65;;;6.20;83.70;;;;;;5069840;28;20483;-69
2021/11/25 03:23:46;;;;;;;42.03;23.77;;;6.20;83.60;;;;;;5103577;28;20099;-70
2021/11/25 03:26:15;;;;;;;39.42;23.35;;;6.20;83.60;;;;;;5091423;28;20115;-69
2021/11/25 03:28:43;;;;;;;40.35;22.58;;;6.20;83.60;;;;;;5078609;28;20028;-70
2021/11/25 03:31:11;;;;;;;41.50;23.13;;;6.20;83.60;;;;;;5089519;28;20032;-70
2021/11/25 03:33:37;;;;;;;44.08;24.23;;;6.20;83.70;;;;;;5088291;28;20364;-70
2021/11/25 03:36:04;;;;;;;41.15;23.33;;;6.20;83.70;;;;;;5089642;28;20024;-70
2021/11/25 03:38:30;;;;;;;41.05;22.35;;;6.20;83.80;;;;;;5089111;28;20035;-69
2021/11/25 03:40:57;;;;;;;45.35;26.23;;;6.20;83.80;;;;;;5102271;28;20509;-70
2021/11/25 03:43:23;;;;;;;49.42;25.27;;;6.20;83.90;;;;;;5089079;28;20032;-70
2021/11/25 03:45:49;;;;;;;43.63;23.95;;;6.20;84.00;;;;;;5087783;28;20028;-70
2021/11/25 03:48:15;;;;;;;43.15;23.67;;;6.20;84.00;;;;;;5095077;28;20035;-70
2021/11/25 03:50:41;;;;;;;57.92;24.90;;;6.20;84.00;;;;;;5108000;28;20401;-69
2021/11/25 03:53:08;;;;;;;48.13;25.70;;;6.20;84.00;;;;;;5089528;28;20040;-69
2021/11/25 03:55:35;;;;;;;44.47;25.73;;;6.20;84.00;;;;;;5106473;28;20092;-70
2021/11/25 03:58:01;;;;;;;44.63;25.30;;;6.20;84.10;;;;;;5088564;28;20023;-70
2021/11/25 04:00:27;;;;;;;45.45;24.77;;;6.20;84.20;;;;;;5089216;28;20402;-70
2021/11/25 04:02:53;;;;;;;47.95;26.85;;;6.20;84.30;;;;;;5087098;28;20028;-70
2021/11/25 04:05:20;;;;;;;39.50;24.23;;;6.20;84.30;;;;;;5085789;28;20032;-73
2021/11/25 04:07:46;;;;;;;44.55;25.88;;;6.20;84.30;;;;;;5089247;28;20060;-73
2021/11/25 04:10:14;;;;;;;44.92;25.83;;;6.20;84.40;;;;;;5087945;28;20054;-73
2021/11/25 04:12:40;;;;;;;52.50;29.55;;;6.20;84.50;;;;;;5089458;28;20454;-73
2021/11/25 04:15:08;;;;;;;45.38;26.40;;;6.20;84.50;;;;;;5094379;28;20028;-73
2021/11/25 04:17:34;;;;;;;43.28;25.98;;;6.20;84.60;;;;;;5102346;28;20430;-73
2021/11/25 04:19:59;;;;;;;43.83;25.55;;;6.20;84.60;;;;;;5087511;28;20032;-73
2021/11/25 04:22:25;;;;;;;48.15;26.85;;;6.20;84.70;;;;;;5094552;28;20044;-73
2021/11/25 04:24:53;;;;;;;43.75;25.58;;;6.20;84.60;;;;;;5087981;28;20063;-73
2021/11/25 04:27:19;;;;;;;44.00;26.40;;;6.20;85.20;;;;;;5089291;28;20089;-70
2021/11/25 04:29:51;;;;;;;42.55;25.42;;;6.20;84.60;;;;;;5085359;28;20027;-70
2021/11/25 04:37:48;;;;;;;44.10;25.30;;;6.20;84.50;;;;;;5085661;28;20047;-70
2021/11/25 04:40:13;;;;;;;41.08;24.98;;;6.20;84.50;;;;;;5092305;28;20036;-70
2021/11/25 04:42:39;;;;;;;43.28;26.00;;;6.20;84.50;;;;;;5089316;28;20107;-70
2021/11/25 04:45:06;;;;;;;41.35;26.52;;;6.20;85.00;;;;;;5088327;28;20123;-70
2021/11/25 04:47:32;;;;;;;47.03;28.92;;;6.20;84.50;;;;;;5085428;28;20036;-70
2021/11/25 04:49:58;;;;;;;45.08;28.08;;;6.20;84.20;;;;;;5080709;28;20553;-70
2021/11/25 04:52:27;;;;;;;42.85;26.42;;;6.20;84.20;;;;;;5087336;28;20040;-70
2021/11/25 04:54:52;;;;;;;41.58;27.02;;;6.20;84.30;;;;;;5085732;28;20093;-70
2021/11/25 04:57:18;;;;;;;44.65;27.55;;;6.20;84.40;;;;;;5053606;28;20032;-70
2021/11/25 04:59:44;;;;;;;43.88;28.30;;;6.20;84.50;;;;;;5090145;28;20025;-70
2021/11/25 05:02:09;;;;;;;42.67;28.10;;;6.30;84.50;;;;;;5053428;28;20021;-69
2021/11/25 05:04:35;;;;;;;40.45;28.77;;;6.20;84.40;;;;;;5093549;28;20032;-70
2021/11/25 05:07:00;;;;;;;44.42;27.83;;;6.30;84.50;;;;;;5070602;28;20029;-70
2021/11/25 05:09:26;;;;;;;42.85;28.98;;;6.30;84.40;;;;;;5087922;28;20782;-70
2021/11/25 05:11:52;;;;;;;43.25;27.65;;;6.20;84.20;;;;;;5087331;28;20478;-70
2021/11/25 05:14:18;;;;;;;39.25;26.90;;;6.30;84.20;;;;;;5053229;28;20036;-70
2021/11/25 05:16:44;;;;;;;39.33;25.75;;;6.30;84.10;;;;;;5072689;28;20024;-70
2021/11/25 05:19:11;;;;;;;42.22;29.17;;;6.30;83.90;;;;;;5091243;28;20028;-70
2021/11/25 05:21:37;;;;;;;37.53;24.83;;;6.30;83.70;;;;;;5100734;28;20394;-73
2021/11/25 05:24:02;;;;;;;42.83;28.92;;;6.20;83.80;;;;;;5073705;28;20111;-73
2021/11/25 05:26:29;;;;;;;45.38;29.27;;;6.30;83.80;;;;;;5091719;28;20064;-73
2021/11/25 05:28:54;;;;;;;41.60;28.42;;;6.20;83.60;;;;;;5090871;28;20037;-73
2021/11/25 05:31:22;;;;;;;39.08;28.52;;;6.20;83.50;;;;;;5073413;28;20184;-73
2021/11/25 05:33:48;;;;;;;39.03;26.77;;;6.30;83.70;;;;;;5089750;28;20032;-73
2021/11/25 05:36:14;;;;;;;40.83;29.00;;;6.30;83.60;;;;;;5075867;28;20059;-73
2021/11/25 05:38:39;;;;;;;39.97;28.23;;;6.30;83.40;;;;;;5095572;28;20085;-70
2021/11/25 05:41:05;;;;;;;41.05;29.55;;;6.30;83.40;;;;;;5075442;28;20463;-70
2021/11/25 05:43:31;;;;;;;41.03;27.95;;;6.30;83.30;;;;;;5073683;28;20087;-70
2021/11/25 05:45:56;;;;;;;42.80;29.58;;;6.30;83.30;;;;;;5070992;28;20048;-70
2021/11/25 05:48:23;;;;;;;39.97;28.38;;;6.30;82.80;;;;;;5091263;28;20070;-70
2021/11/25 05:50:50;;;;;;;41.60;27.92;;;6.30;83.30;;;;;;5093256;28;20099;-70
2021/11/25 05:53:20;;;;;;;42.97;29.30;;;6.30;83.50;;;;;;5087106;28;20466;-74
2021/11/25 05:55:46;;;;;;;39.83;26.92;;;6.30;83.80;;;;;;5072890;28;20024;-73
2021/11/25 05:58:12;;;;;;;44.08;29.48;;;6.30;83.90;;;;;;5094307;28;20059;-73
2021/11/25 06:00:37;;;;;;;45.17;30.23;;;6.30;83.80;;;;;;5090693;28;20469;-73
2021/11/25 06:03:03;;;;;;;41.53;29.67;;;6.30;83.80;;;;;;5093094;28;20040;-70
2021/11/25 06:05:29;;;;;;;44.85;30.63;;;6.30;83.90;;;;;;5089280;28;20181;-70
2021/11/25 06:07:59;;;;;;;45.00;31.70;;;6.30;84.00;;;;;;5087675;28;20088;-70
2021/11/25 06:10:24;;;;;;;44.58;30.65;;;6.30;84.00;;;;;;5089825;28;20407;-70
2021/11/25 06:12:51;;;;;;;44.13;29.15;;;6.30;84.00;;;;;;5091532;28;20024;-74
2021/11/25 06:15:17;;;;;;;43.25;28.98;;;6.30;84.10;;;;;;5071731;28;20516;-74
2021/11/25 06:17:43;;;;;;;47.47;31.02;;;6.30;84.10;;;;;;5096402;28;20162;-74
2021/11/25 06:20:13;;;;;;;45.13;32.28;;;6.30;84.20;;;;;;5089907;28;20067;-74
2021/11/25 06:22:40;;;;;;;44.20;30.88;;;6.30;84.50;;;;;;5097337;28;20043;-70
2021/11/25 06:25:07;;;;;;;39.83;29.00;;;6.30;84.40;;;;;;5086816;28;20537;-74
2021/11/25 06:27:34;;;;;;;44.80;31.05;;;6.30;84.40;;;;;;5089952;28;20028;-71
2021/11/25 06:30:00;;;;;;;42.05;30.40;;;6.30;84.30;;;;;;5106354;28;20028;-73
2021/11/25 06:32:26;;;;;;;43.53;30.30;;;6.30;84.40;;;;;;5091672;28;20032;-73
2021/11/25 06:34:55;;;;;;;46.03;30.83;;;6.20;84.40;;;;;;5069787;28;20035;-73
2021/11/25 06:37:20;;;;;;;47.72;32.47;;;6.20;84.80;;;;;;5084703;28;20485;-73
2021/11/25 06:39:46;;;;;;;45.28;31.15;;;6.20;83.90;;;;;;5090728;28;20112;-73
2021/11/25 06:42:12;;;;;;;44.35;32.03;;;6.20;83.90;;;;;;5091181;28;20058;-70
2021/11/25 06:44:37;;;;;;;44.83;31.63;;;6.20;84.10;;;;;;5055866;28;20024;-71
2021/11/25 06:47:03;;;;;;;44.03;29.52;;;6.20;84.10;;;;;;5091050;28;20030;-70
2021/11/25 06:49:29;;;;;;;44.47;30.27;;;6.20;84.20;;;;;;5072883;28;20026;-71
2021/11/25 06:51:55;;;;;;;47.00;33.20;;;6.20;84.10;;;;;;5071044;28;20059;-71
2021/11/25 06:54:20;;;;;;;48.50;31.83;;;6.10;83.30;;;;;;5070091;28;20028;-71
2021/11/25 06:56:46;;;;;;;45.28;32.58;;;6.10;83.50;;;;;;5089822;28;20039;-71
2021/11/25 06:59:12;;;;;;;44.75;31.73;;;6.10;83.50;;;;;;5090991;28;20040;-71
2021/11/25 07:01:38;;;;;;;46.55;33.17;;;6.10;83.50;;;;;;5076183;28;20093;-70
2021/11/25 07:04:04;;;;;;;45.35;31.23;;;6.10;83.50;;;;;;5091399;28;20086;-73
2021/11/25 07:06:30;;;;;;;43.55;31.75;;;6.10;83.50;;;;;;5091089;28;20055;-70
2021/11/25 07:08:56;;;;;;;44.05;31.98;;;6.10;83.50;;;;;;5088777;28;20056;-70
2021/11/25 07:11:24;;;;;;;46.80;31.83;;;6.10;83.40;;;;;;5070328;28;20035;-73
2021/11/25 07:13:49;;;;;;;45.15;32.03;;;6.10;83.50;;;;;;5070457;28;20450;-71
2021/11/25 07:16:16;;;;;;;43.50;31.10;;;6.20;83.50;;;;;;5070429;28;20034;-71
2021/11/25 07:18:41;;;;;;;45.72;30.95;;;6.20;83.60;;;;;;5052350;28;20035;-73
2021/11/25 07:21:07;;;;;;;45.50;31.33;;;6.20;83.70;;;;;;5070436;28;20468;-73
2021/11/25 07:23:33;;;;;;;41.75;30.73;;;6.20;83.70;;;;;;5052771;28;20029;-73
2021/11/25 07:25:58;;;;;;;39.42;29.75;;;6.20;83.70;;;;;;5052075;28;20040;-73
2021/11/25 07:28:24;;;;;;;42.88;31.10;;;6.20;83.70;;;;;;5069739;28;20033;-73
2021/11/25 07:30:51;;;;;;;43.85;30.35;;;6.20;83.50;;;;;;5068592;28;20036;-73
2021/11/25 07:33:17;;;;;;;44.08;31.33;;;6.30;83.60;;;;;;5052018;28;20534;-73
2021/11/25 07:35:46;;;;;;;36.85;27.98;;;6.20;83.40;;;;;;5069590;28;20028;-73
2021/11/25 07:38:12;;;;;;;42.88;30.83;;;6.20;83.30;;;;;;5069286;28;20024;-73
2021/11/25 07:40:39;;;;;;;50.78;32.40;;;6.20;83.40;;;;;;5069317;28;20029;-73
2021/11/25 07:43:06;;;;;;;43.33;30.35;;;6.20;83.50;;;;;;5052767;28;20028;-71
2021/11/25 07:45:33;;;;;;;42.90;29.80;;;6.20;83.50;;;;;;5052448;28;20032;-71
2021/11/25 07:47:59;;;;;;;41.72;31.02;;;6.30;83.50;;;;;;5070099;28;20441;-73
2021/11/25 07:50:26;;;;;;;43.10;30.85;;;6.20;82.90;;;;;;5069468;28;20044;-73
2021/11/25 07:52:53;;;;;;;41.40;29.88;;;6.20;82.70;;;;;;5074887;28;20029;-73
2021/11/25 07:55:19;;;;;;;38.10;27.38;;;6.20;82.80;;;;;;5051367;28;20044;-73
2021/11/25 07:57:46;;;;;;;38.83;27.75;;;6.20;83.00;;;;;;5068919;28;20345;-73
2021/11/25 08:00:14;;;;;;;38.70;28.08;;;6.20;82.90;;;;;;5089364;28;20028;-73
2021/11/25 08:02:41;;;;;;;41.63;28.58;;;6.20;83.00;;;;;;5090098;28;20428;-73
2021/11/25 08:05:07;;;;;;;37.85;27.45;;;6.20;83.10;;;;;;5071666;28;20024;-73
2021/11/25 08:07:33;;;;;;;36.20;26.48;;;6.30;83.30;;;;;;5082601;28;20101;-73
2021/11/25 08:09:58;;;;;;;38.55;28.77;;;6.30;83.00;;;;;;5089086;28;20468;-73
2021/11/25 08:12:24;;;;;;;37.95;27.27;;;6.30;82.70;;;;;;5072107;28;20977;-73
2021/11/25 08:14:50;;;;;;;34.00;25.58;;;6.30;82.50;;;;;;5072001;28;20138;-73
2021/11/25 08:17:15;;;;;;;37.30;27.35;;;6.30;83.10;;;;;;5067534;28;20419;-73
2021/11/25 08:19:42;;;;;;;34.85;25.17;;;6.30;82.40;;;;;;5069317;28;20059;-73
2021/11/25 08:22:08;;;;;;;36.13;26.52;;;6.30;82.30;;;;;;5051758;28;20123;-73
2021/11/25 08:24:33;;;;;;;35.85;26.83;;;6.30;82.30;;;;;;5051885;28;20526;-73
2021/11/25 08:27:00;;;;;;;38.30;28.05;;;6.30;82.30;;;;;;5069058;28;20037;-73
2021/11/25 08:29:26;;;;;;;37.95;27.85;;;6.30;82.70;;;;;;5069404;28;20056;-73
2021/11/25 08:31:52;;;;;;;38.92;27.70;;;6.30;82.80;;;;;;5069819;28;20371;-73
2021/11/25 08:34:17;;;;;;;39.50;29.35;;;6.40;82.50;;;;;;5070320;28;20020;-71
2021/11/25 08:36:43;;;;;;;37.17;26.75;;;6.40;82.60;;;;;;5051198;28;20545;-70
2021/11/25 08:39:09;;;;;;;40.67;28.77;;;6.30;82.30;;;;;;5061870;28;20028;-70
2021/11/25 08:41:35;;;;;;;40.30;27.27;;;6.40;82.30;;;;;;5089432;28;20085;-73
2021/11/25 08:44:01;;;;;;;41.28;29.33;;;6.30;81.90;;;;;;5089922;28;20031;-71
2021/11/25 08:46:27;;;;;;;42.47;28.95;;;6.30;81.50;;;;;;5089511;28;20169;-70
2021/11/25 08:48:53;;;;;;;36.83;27.33;;;6.20;81.50;;;;;;5071008;28;20546;-70
2021/11/25 08:51:18;;;;;;;34.78;26.42;;;6.30;81.90;;;;;;5090722;28;20048;-71
2021/11/25 08:53:44;;;;;;;37.67;27.40;;;6.30;82.20;;;;;;5093753;28;20055;-73
2021/11/25 08:56:10;;;;;;;38.30;27.90;;;6.30;82.40;;;;;;5093089;28;20410;-70
2021/11/25 08:58:37;;;;;;;40.88;28.45;;;6.30;82.40;;;;;;5093225;28;20073;-71
2021/11/25 09:01:04;;;;;;;42.03;28.52;;;6.40;82.30;;;;;;5093484;28;20070;-70
2021/11/25 09:03:30;;;;;;;39.83;28.70;;;6.40;82.30;;;;;;5075838;28;20038;-71
2021/11/25 09:05:57;;;;;;;41.80;29.50;;;6.40;82.30;;;;;;5058615;28;20116;-73
2021/11/25 09:08:23;;;;;;;39.13;28.58;;;6.40;82.40;;;;;;5068718;28;20040;-73
2021/11/25 09:10:48;;;;;;;42.67;28.65;;;6.50;82.50;;;;;;5076454;28;20032;-73
2021/11/25 09:13:14;;;;;;;51.42;33.65;;;6.50;82.20;;;;;;5093320;28;20426;-73
2021/11/25 09:15:40;;;;;;;46.85;33.53;;;6.50;82.00;;;;;;5074849;28;20439;-70
2021/11/25 09:18:09;;;;;;;41.10;30.60;;;6.50;81.80;;;;;;5092415;28;20055;-71
2021/11/25 09:20:39;;;;;;;43.58;30.52;;;6.50;81.80;;;;;;5093174;28;20371;-73
2021/11/25 09:23:08;;;;;;;43.92;31.55;;;6.50;82.10;;;;;;5075077;28;20028;-73
2021/11/25 09:25:34;;;;;;;41.42;30.05;;;6.50;82.10;;;;;;5067480;28;20025;-73
2021/11/25 09:28:01;;;;;;;45.75;33.30;;;6.50;82.00;;;;;;5072332;28;20036;-73
2021/11/25 09:30:27;;;;;;;44.53;31.77;;;6.50;81.70;;;;;;5060742;28;20085;-71
2021/11/25 09:32:54;;;;;;;44.58;31.92;;;6.50;81.90;;;;;;5092975;28;20036;-70
2021/11/25 09:35:20;;;;;;;44.17;30.48;;;6.50;82.10;;;;;;5092825;28;20039;-71
2021/11/25 09:37:46;;;;;;;42.20;30.30;;;6.50;82.10;;;;;;5092423;28;20469;-73
2021/11/25 09:40:22;;;;;;;40.97;30.52;;;6.50;82.20;;;;;;5083286;28;20636;-73
2021/11/25 09:42:53;;;;;;;44.53;29.45;;;6.60;82.30;;;;;;5072405;28;20040;-73
2021/11/25 09:45:23;;;;;;;42.33;29.73;;;6.60;82.20;;;;;;5072052;28;20036;-71
2021/11/25 09:47:55;;;;;;;42.78;30.35;;;6.60;82.10;;;;;;5072169;28;20045;-73
2021/11/25 09:50:22;;;;;;;45.08;32.60;;;6.60;82.00;;;;;;5072389;28;20048;-73
2021/11/25 09:52:52;;;;;;;41.33;30.52;;;6.60;82.10;;;;;;5072564;28;20059;-73
2021/11/25 09:55:19;;;;;;;41.72;30.33;;;6.60;82.20;;;;;;5053817;28;20028;-71
2021/11/25 09:57:45;;;;;;;41.38;29.77;;;6.60;82.50;;;;;;5087469;28;20025;-73
2021/11/25 10:00:11;;;;;;;40.97;30.48;;;6.60;82.70;;;;;;5072638;28;20368;-73
2021/11/25 10:02:37;;;;;;;40.30;29.92;;;6.60;82.80;;;;;;5052742;28;20064;-73
2021/11/25 10:05:04;;;;;;;42.45;30.67;;;6.60;82.70;;;;;;5071762;28;20044;-71
2021/11/25 10:07:35;;;;;;;45.67;33.53;;;6.60;82.70;;;;;;5052950;28;20067;-73
2021/11/25 10:10:27;;;;;;;41.80;31.08;;;6.50;82.60;;;;;;5087498;28;20081;-73
2021/11/25 10:13:24;;;;;;;49.50;33.85;;;6.50;83.00;;;;;;5074044;28;20069;-71
2021/11/25 10:15:50;;;;;;;47.63;32.50;;;6.40;83.10;;;;;;5072154;28;20036;-71
2021/11/25 10:18:18;;;;;;;43.35;32.17;;;6.40;83.50;;;;;;5090556;28;20024;-71
2021/11/25 10:20:46;;;;;;;44.13;32.00;;;6.40;83.70;;;;;;5091910;28;20043;-71
2021/11/25 10:23:20;;;;;;;45.33;30.52;;;6.40;84.00;;;;;;5091989;28;20498;-70
2021/11/25 10:26:02;;;;;;;46.08;31.65;;;6.30;84.00;;;;;;5091704;28;20036;-71
2021/11/25 10:28:41;;;;;;;47.83;33.50;;;6.30;84.20;;;;;;5091470;28;20032;-73
2021/11/25 10:31:19;;;;;;;43.17;30.58;;;6.30;84.40;;;;;;5091724;28;20038;-73
2021/11/25 10:33:55;;;;;;;46.00;32.25;;;6.40;84.40;;;;;;5064690;28;20021;-73
2021/11/25 10:39:08;;;;;;;48.05;33.58;;;6.30;84.70;;;;;;5070914;28;20051;-74
2021/11/25 10:41:37;;;;;;;42.38;31.85;;;6.30;84.90;;;;;;5071022;28;20031;-74
2021/11/25 10:44:22;;;;;;;45.70;33.40;;;6.30;85.00;;;;;;5091611;28;20498;-74
2021/11/25 10:46:52;;;;;;;50.28;34.90;;;6.30;85.30;;;;;;5081820;28;20450;-73
2021/11/25 10:49:31;;;;;;;50.58;35.95;;;6.40;85.50;;;;;;5071602;28;20082;-74
2021/11/25 10:51:57;;;;;;;50.58;36.83;;;6.40;85.40;;;;;;5082967;28;20453;-74
2021/11/25 10:54:23;;;;;;;45.63;33.97;;;6.50;85.50;;;;;;5090734;28;20039;-74
2021/11/25 10:56:51;;;;;;;45.10;31.73;;;6.50;85.40;;;;;;5089150;28;20379;-71
2021/11/25 10:59:20;;;;;;;42.85;33.22;;;6.50;85.40;;;;;;5090383;28;20517;-71
2021/11/25 11:01:51;;;;;;;46.00;34.03;;;6.50;85.50;;;;;;5090817;28;20120;-71
2021/11/25 11:04:18;;;;;;;50.50;35.63;;;6.40;85.70;;;;;;5090292;28;20028;-71
2021/11/25 11:06:45;;;;;;;49.75;33.53;;;6.40;86.40;;;;;;5085283;28;20036;-71
2021/11/25 11:09:29;;;;;;;50.08;34.80;;;6.50;85.90;;;;;;5088412;28;20121;-70
2021/11/25 11:12:19;;;;;;;51.47;35.58;;;6.50;86.00;;;;;;5069332;28;20394;-73
2021/11/25 11:15:01;;;;;;;49.90;34.70;;;6.50;85.90;;;;;;5070630;28;20016;-70
2021/11/25 11:17:31;;;;;;;49.42;34.72;;;6.60;86.00;;;;;;5086329;28;20016;-73
2021/11/25 11:20:16;;;;;;;56.20;36.05;;;6.60;86.00;;;;;;5083889;28;20024;-73
2021/11/25 11:23:00;;;;;;;51.47;34.67;;;6.60;86.10;;;;;;5086277;28;20052;-73
2021/11/25 11:25:27;;;;;;;60.10;39.40;;;6.60;86.30;;;;;;5084824;28;20482;-73
2021/11/25 11:27:57;;;;;;;60.88;38.00;;;6.60;86.40;;;;;;5085185;28;20032;-73
2021/11/25 11:30:23;;;;;;;54.83;34.55;;;6.60;86.70;;;;;;5087603;28;20344;-73
2021/11/25 11:32:49;;;;;;;54.95;35.92;;;6.60;86.60;;;;;;5070492;28;20036;-73
2021/11/25 11:35:19;;;;;;;60.40;37.35;;;6.70;86.60;;;;;;5089842;28;20052;-73
2021/11/25 11:37:46;;;;;;;59.70;38.72;;;6.70;86.70;;;;;;5089810;28;20012;-73
2021/11/25 11:40:12;;;;;;;56.13;35.60;;;6.70;86.70;;;;;;5088879;28;20456;-73
2021/11/25 11:42:39;;;;;;;54.63;37.63;;;6.80;86.80;;;;;;5080096;28;20024;-73
2021/11/25 11:45:07;;;;;;;59.50;36.65;;;6.80;86.80;;;;;;5082598;28;20040;-73
2021/11/25 11:47:34;;;;;;;56.33;37.65;;;6.80;86.80;;;;;;5068777;28;20032;-73
2021/11/25 11:50:09;;;;;;;55.75;35.05;;;6.80;86.80;;;;;;5069907;28;20020;-73
2021/11/25 11:52:36;;;;;;;55.65;36.85;;;6.90;86.90;;;;;;5087228;28;20064;-73
2021/11/25 11:55:04;;;;;;;61.10;39.45;;;6.90;87.00;;;;;;5070670;28;20058;-73
2021/11/25 11:57:36;;;;;;;59.63;38.70;;;6.90;87.20;;;;;;5088627;28;20031;-73
2021/11/25 12:00:09;;;;;;;59.70;38.17;;;6.80;87.20;;;;;;5087318;28;20028;-73
2021/11/25 12:02:52;;;;;;;52.42;35.03;;;6.90;87.40;;;;;;5088917;28;20031;-73
2021/11/25 12:05:39;;;;;;;64.28;38.35;;;6.90;87.50;;;;;;5085830;28;20077;-74
2021/11/25 12:08:20;;;;;;;59.83;37.03;;;7.00;87.40;;;;;;5084243;28;20024;-74
2021/11/25 12:11:01;;;;;;;57.70;37.08;;;7.10;87.50;;;;;;5070756;28;20032;-74
2021/11/25 12:13:30;;;;;;;62.88;39.15;;;7.10;87.50;;;;;;5087782;28;20036;-73
2021/11/25 12:16:22;;;;;;;66.03;41.45;;;7.10;87.60;;;;;;5074117;28;20011;-73
2021/11/25 12:18:54;;;;;;;65.22;40.80;;;7.20;87.70;;;;;;5084467;28;20086;-79
2021/11/25 12:21:48;;;;;;;58.03;37.65;;;7.20;87.70;;;;;;5087305;28;20082;-74
2021/11/25 12:24:25;;;;;;;59.47;38.72;;;7.20;87.70;;;;;;5084310;28;20054;-71
2021/11/25 12:27:05;;;;;;;58.92;38.22;;;7.20;87.70;;;;;;5086467;28;20042;-74
2021/11/25 12:30:07;;;;;;;56.80;36.70;;;7.20;87.70;;;;;;5068567;28;20101;-71
2021/11/25 12:32:48;;;;;;;55.67;36.40;;;7.30;87.70;;;;;;5091511;28;20036;-71
2021/11/25 12:35:14;;;;;;;57.58;36.63;;;7.40;87.70;;;;;;5087839;28;20039;-74
2021/11/25 12:38:19;;;;;;;59.90;37.50;;;7.40;87.70;;;;;;5070187;28;20033;-71
2021/11/25 12:40:40;;;;;;;60.47;37.97;;;7.40;87.80;;;;;;5087761;28;20036;-71
2021/11/25 12:43:14;;;;;;;59.10;37.63;;;7.50;87.60;;;;;;5095480;28;20016;-71
2021/11/25 12:46:08;;;;;;;63.97;38.88;;;7.60;87.80;;;;;;5087553;28;20036;-74
2021/11/25 12:48:40;;;;;;;59.95;39.08;;;7.70;87.70;;;;;;5055918;28;20051;-71